KSKA/SKA METAR and TAF weather

Enter ICAO airport designator
Station Type Date Time Source
KSKA METAR 2021/07/26 11:56 UTC NOAA

KSKA 261156Z 00000KT 10SM CLR 17/03 A2993 RMK AO2A SLP118 T01670027 10220 20167 53002 $


Station Type Date Time Source
KSKA Decoded METAR 2021/07/26 11:56 UTC NOAA

Fairchild Air Force Base, WA, United States (KSKA) 47-37N 117-39W
Jul 26, 2021 - 07:56 AM EDT / 2021.07.26 1156 UTC
Wind: Calm:0
Visibility: 10 mile(s):0
Sky conditions: clear
Temperature: 62.1 F (16.7 C)
Dew Point: 36.9 F (2.7 C)
Relative Humidity: 39%
Pressure (altimeter): 29.93 in. Hg (1013 hPa)
Pressure tendency: 0.01 inches (0.2 hPa) higher than three hours ago
ob: KSKA 261156Z 00000KT 10SM CLR 17/03 A2993 RMK AO2A SLP118 T01670027 10220 20167 53002
cycle: 12

Station Type Date Time Source
KSKA TAF 2021/07/26 11:09 UTC NOAA

TAF TAF KSKA 261100Z 2611/2717 18006KT 9999 FEW060 QNH2991INS
BECMG 2617/2618 21010G15KT 9999 FEW090 QNH2985INS
BECMG 2702/2703 VRB06KT 9999 SCT200 QNH2985INS
BECMG 2711/2712 20008KT 9999 BKN200 QNH2989INS TX35/2623Z TN16/2612Z

Example: see airport list